Wausa, NE

7:40 PM CST on January 22, 2017 (GMT -0600)
Hwy 20 and Hwy 81 | | Change Station
Active Advisory: Winter Storm Watch

Elev 1778 ft 42.37 °N, 97.44 °W | Updated 11 minutes ago

Clear
Clear
31.5 °F
Feels Like 27 °F
N
5.0
Wind Variable Wind from NW
Gusts 9.0 mph

Today
High -- | Low -- °F
--% Chance of Precip.
Yesterday
High -- | Low -- °F
Precip. -- in
Pressure 29.88 in
Visibility 10.0 miles
Clouds Clear
Windchill 27 °F
Dew Point 29 °F
Humidity 89%
Rainfall 0.00 in
Snow Depth Not available.
7:52 AM 5:31 PM
Waning Crescent, 22% visible
METAR KYKN 230115Z AUTO 31006KT 10SM CLR M02/M04 A2988 RMK AO1
Pressure 29.88 in
Visibility 10.0 miles
Clouds Clear
Windchill 27 °F
Dew Point 29 °F
Humidity 89%
Rainfall 0.00 in
Snow Depth Not available.
7:52 AM 5:31 PM
Waning Crescent, 22% visible
METAR KYKN 230115Z AUTO 31006KT 10SM CLR M02/M04 A2988 RMK AO1

Get Your Daily Forecast Email!

Thanks for signing up!

Be on the lookout for a verification email in your inbox.

You'll start receiving the daily forecast at 8 AM.

×

10-Day Weather Forecast

Almanac

Astronomy

Jan. 22, 2017 Rise Set
Actual Time
Civil Twilight
Nautical Twilight
Astronomical Twilight
Moon
Length of Visible Light
Length of Day
Tomorrow will be .
, % of the Moon is Illuminated

Today's Extremes

State Highs State Lows

Community

WunderPhotos

Upload Photos

1,962,540 photos uploaded!

WunderBlog® & News

Nearby

Air Quality

  Air Quality AQ Index Pollutant
Not available.

Snow Depth

Station Depth Elevation

Earthquake Activity

City Distance Mag. Time & Date
Minimum magnitude displayed is 2.5.

Coastal Water Temperatures

Place Temperature

Stations

Nearby Weather Stations

Station Location Temp. Windchill Dew Point Humidity Wind Precip. Elev Updated Type
                   

Watches & Warnings

Winter Storm Watch
Issued: 2:40 PM CST Jan. 22, 2017 – National Weather Service

... Winter Storm Watch in effect from Tuesday morning through late
Tuesday night...

The National Weather Service in Omaha/valley has issued a Winter
Storm Watch... which is in effect from Tuesday morning through
late Tuesday night.

* Timing... snow starting during the day Tuesday in northeast
Nebraska... continuing through Tuesday night.

* Main impact... hazardous travel due to snow packed roads and low
visibility with blowing and drifting snow.

* Accumulations... snow accumulations from 4 to 6 inches or more
are possible.

* Winds... north or northwest winds from 15 to 30 mph could cause
considerable blowing and drifting snow... especially Tuesday
night.

Precautionary/preparedness actions...

A Winter Storm Watch means there is a potential for significant
snow, sleet, or ice accumulations that may impact travel. This
system is also expected to have enough wind to cause blowing and
drifting snow. Continue to monitor the latest forecasts.